Time;durP1;ratioP1;P1;durP2;ratioP2;P2;SDS_P1;SDS_P2;PMS_P1;PMS_P2;Temp;Humidity;BMP_temperature;BMP_pressure;BME280_temperature;BME280_humidity;BME280_pressure;Samples;Min_cycle;Max_cycle;Signal;HPM_P1;HPM_P2
2021/03/08 00:01:32;;;;;;;13.87;10.43;;;-2.50;56.70;;;;;;5072287;28;20451;-83
2021/03/08 00:03:58;;;;;;;16.43;11.63;;;-2.50;56.70;;;;;;5075880;28;20470;-80
2021/03/08 00:06:24;;;;;;;16.23;10.70;;;-2.60;56.70;;;;;;5063320;28;20485;-83
2021/03/08 00:08:51;;;;;;;15.57;10.50;;;-2.60;57.00;;;;;;5060162;28;20484;-80
2021/03/08 00:11:17;;;;;;;15.60;11.00;;;-2.50;57.00;;;;;;5069909;28;20545;-84
2021/03/08 00:13:44;;;;;;;12.83;9.87;;;-2.60;57.00;;;;;;5071326;28;20556;-80
2021/03/08 00:16:10;;;;;;;17.37;12.03;;;-2.70;57.40;;;;;;5070499;28;20482;-82
2021/03/08 00:18:37;;;;;;;15.83;10.80;;;-2.80;57.80;;;;;;5071771;28;20512;-83
2021/03/08 00:21:04;;;;;;;13.03;10.73;;;-2.80;58.70;;;;;;5064714;28;20463;-80
2021/03/08 00:23:31;;;;;;;13.70;11.20;;;-2.60;58.60;;;;;;5072428;28;20454;-80
2021/03/08 00:25:57;;;;;;;13.37;11.30;;;-2.70;58.70;;;;;;5069610;28;20524;-80
2021/03/08 00:28:24;;;;;;;14.40;11.50;;;-2.60;58.90;;;;;;5072296;28;20463;-79
2021/03/08 00:30:50;;;;;;;15.47;10.97;;;-2.60;59.10;;;;;;5068182;28;20539;-81
2021/03/08 00:33:17;;;;;;;17.40;12.90;;;-2.60;59.50;;;;;;5067647;28;20467;-80
2021/03/08 00:35:44;;;;;;;17.30;12.13;;;-2.60;59.70;;;;;;5073942;28;22122;-80
2021/03/08 00:38:10;;;;;;;15.40;11.90;;;-2.60;60.30;;;;;;5083263;28;20473;-79
2021/03/08 00:40:36;;;;;;;24.67;16.50;;;-2.60;60.80;;;;;;5075672;28;20530;-81
2021/03/08 00:43:03;;;;;;;23.40;16.87;;;-2.60;61.20;;;;;;5071019;28;20472;-81
2021/03/08 00:45:29;;;;;;;22.57;16.10;;;-2.60;61.80;;;;;;5070093;28;20811;-80
2021/03/08 00:47:56;;;;;;;22.10;15.93;;;-2.70;62.20;;;;;;5080735;28;20445;-81
2021/03/08 00:50:25;;;;;;;18.80;14.80;;;-2.70;63.00;;;;;;5079347;28;20451;-79
2021/03/08 00:52:52;;;;;;;21.50;15.87;;;-2.70;64.00;;;;;;5074797;28;20524;-80
2021/03/08 00:55:19;;;;;;;19.67;14.17;;;-2.60;64.50;;;;;;5065746;28;20513;-82
2021/03/08 00:57:46;;;;;;;22.17;14.43;;;-2.60;64.50;;;;;;5065695;28;20459;-79
2021/03/08 01:00:16;;;;;;;18.13;13.13;;;-2.70;64.70;;;;;;5065430;28;20449;-83
2021/03/08 01:02:43;;;;;;;20.60;12.70;;;-2.70;64.80;;;;;;5067671;28;20768;-81
2021/03/08 01:05:10;;;;;;;16.07;12.10;;;-2.80;65.30;;;;;;5064077;28;20440;-79
2021/03/08 01:07:37;;;;;;;17.50;13.40;;;-2.70;65.90;;;;;;5068036;28;20465;-80
2021/03/08 01:10:09;;;;;;;17.67;13.67;;;-2.80;66.00;;;;;;5069161;28;20470;-81
2021/03/08 01:12:35;;;;;;;18.60;14.03;;;-2.80;66.40;;;;;;5063054;28;20456;-79
2021/03/08 01:15:02;;;;;;;17.57;13.60;;;-2.80;66.40;;;;;;5073766;28;20547;-82
2021/03/08 01:17:31;;;;;;;18.87;13.40;;;-2.90;66.50;;;;;;5072245;28;20551;-82
2021/03/08 01:19:57;;;;;;;19.53;13.37;;;-2.80;66.90;;;;;;5075431;28;20518;-81
2021/03/08 01:22:23;;;;;;;18.40;13.73;;;-2.80;66.90;;;;;;5065153;28;20448;-78
2021/03/08 01:24:50;;;;;;;17.13;12.93;;;-2.90;66.80;;;;;;5075706;28;20580;-82
2021/03/08 01:27:17;;;;;;;20.43;13.93;;;-2.90;67.20;;;;;;5079341;28;20449;-79
2021/03/08 01:29:43;;;;;;;17.50;13.57;;;-2.90;67.70;;;;;;5079137;28;20451;-79
2021/03/08 01:32:10;;;;;;;19.37;13.27;;;-3.00;67.90;;;;;;5076509;28;20488;-79
2021/03/08 01:34:36;;;;;;;18.50;13.23;;;-2.90;68.10;;;;;;5069215;28;20546;-83
2021/03/08 01:37:03;;;;;;;16.10;12.40;;;-3.00;68.30;;;;;;5071810;28;20553;-82
2021/03/08 01:39:29;;;;;;;19.33;12.10;;;-3.00;68.70;;;;;;5063875;28;20526;-79
2021/03/08 01:41:55;;;;;;;20.93;15.33;;;-3.10;69.10;;;;;;5071868;28;20486;-82
2021/03/08 01:44:22;;;;;;;19.30;14.30;;;-3.10;69.40;;;;;;5064486;28;20507;-79
2021/03/08 01:46:50;;;;;;;19.33;14.73;;;-3.20;70.00;;;;;;5058616;28;20532;-79
2021/03/08 01:49:16;;;;;;;22.27;16.47;;;-3.20;70.80;;;;;;5069963;28;20444;-80
2021/03/08 01:51:43;;;;;;;21.33;14.80;;;-3.10;71.40;;;;;;5043023;28;20470;-80
2021/03/08 01:54:10;;;;;;;20.40;15.00;;;-3.10;70.90;;;;;;5067017;28;20458;-81
2021/03/08 01:56:37;;;;;;;21.03;14.93;;;-3.00;71.00;;;;;;5058697;28;20514;-80
2021/03/08 01:59:04;;;;;;;21.93;15.30;;;-3.10;71.30;;;;;;5067208;28;21027;-80
2021/03/08 02:01:31;;;;;;;24.80;16.97;;;-3.10;71.80;;;;;;5064679;28;20439;-79
2021/03/08 02:03:57;;;;;;;25.20;17.90;;;-3.10;71.80;;;;;;5067412;28;20456;-83
2021/03/08 02:06:24;;;;;;;32.97;20.10;;;-3.10;72.40;;;;;;5072392;28;20455;-80
2021/03/08 02:08:50;;;;;;;22.23;17.03;;;-3.10;72.10;;;;;;5072307;28;20545;-81
2021/03/08 02:11:16;;;;;;;22.67;16.80;;;-3.20;71.80;;;;;;5067487;28;21115;-83
2021/03/08 02:13:55;;;;;;;26.40;18.60;;;-3.30;73.30;;;;;;5069814;28;20807;-79
2021/03/08 02:16:25;;;;;;;25.43;18.57;;;-3.30;73.50;;;;;;5062328;28;20485;-83
2021/03/08 02:19:01;;;;;;;21.80;16.40;;;-3.20;74.70;;;;;;5067406;28;20448;-81
2021/03/08 02:21:47;;;;;;;25.00;14.97;;;-3.10;74.50;;;;;;5061822;28;20477;-80
2021/03/08 02:24:37;;;;;;;22.40;14.90;;;-3.00;73.50;;;;;;5071307;28;20950;-80
2021/03/08 02:27:11;;;;;;;18.23;14.30;;;-3.20;73.80;;;;;;5071222;28;20447;-80
2021/03/08 02:30:07;;;;;;;18.30;13.97;;;-3.10;74.50;;;;;;5082463;28;20439;-81
2021/03/08 02:32:38;;;;;;;22.20;14.00;;;-3.10;74.00;;;;;;5088440;28;20430;-81
2021/03/08 02:35:10;;;;;;;20.60;14.60;;;-3.20;74.60;;;;;;5091766;28;20452;-86
2021/03/08 02:37:45;;;;;;;22.13;13.77;;;-3.30;75.00;;;;;;5070848;28;20442;-80
2021/03/08 02:40:16;;;;;;;24.27;17.07;;;-3.20;75.50;;;;;;5083291;28;20447;-78
2021/03/08 02:42:50;;;;;;;21.87;15.77;;;-3.20;75.50;;;;;;5086976;28;20833;-82
2021/03/08 02:45:19;;;;;;;21.43;15.97;;;-3.30;75.40;;;;;;5077311;28;20453;-80
2021/03/08 02:47:48;;;;;;;24.70;18.97;;;-3.30;75.80;;;;;;5073772;28;20447;-80
2021/03/08 02:50:16;;;;;;;24.07;15.00;;;-3.30;76.20;;;;;;5072258;28;20985;-79
2021/03/08 02:52:48;;;;;;;25.47;18.93;;;-3.40;76.20;;;;;;5070018;28;20448;-81
2021/03/08 02:55:16;;;;;;;32.00;21.60;;;-3.40;76.80;;;;;;5067734;28;20467;-84
2021/03/08 02:57:44;;;;;;;31.27;21.40;;;-3.40;77.50;;;;;;5073067;28;20470;-80
2021/03/08 03:00:15;;;;;;;32.23;20.37;;;-3.40;77.70;;;;;;5084029;28;20461;-84
2021/03/08 03:02:44;;;;;;;25.83;18.37;;;-3.30;77.90;;;;;;5075524;28;20461;-80
2021/03/08 03:05:14;;;;;;;24.90;18.83;;;-3.40;76.90;;;;;;5082935;28;20454;-80
2021/03/08 03:07:44;;;;;;;21.30;15.97;;;-3.50;78.10;;;;;;5074152;28;20458;-79
2021/03/08 03:10:13;;;;;;;25.50;16.60;;;-3.60;78.80;;;;;;5080647;28;20539;-81
2021/03/08 03:12:40;;;;;;;25.10;16.60;;;-3.60;79.10;;;;;;5073583;28;20495;-80
2021/03/08 03:15:10;;;;;;;23.07;16.70;;;-3.60;79.80;;;;;;5072431;28;20540;-81
2021/03/08 03:17:38;;;;;;;25.00;15.57;;;-3.40;80.00;;;;;;5066981;28;21067;-80
2021/03/08 03:20:11;;;;;;;23.43;16.80;;;-3.40;78.00;;;;;;5072614;28;20492;-79
2021/03/08 03:22:43;;;;;;;20.40;14.03;;;-3.50;78.10;;;;;;5071810;28;20479;-78
2021/03/08 03:25:15;;;;;;;23.57;14.70;;;-3.60;78.90;;;;;;5065377;28;20488;-81
2021/03/08 03:27:42;;;;;;;22.10;14.60;;;-3.60;79.20;;;;;;5071324;28;20476;-83
2021/03/08 03:30:10;;;;;;;24.97;14.83;;;-3.70;79.50;;;;;;5075124;28;20466;-81
2021/03/08 03:32:37;;;;;;;21.47;14.77;;;-3.50;80.40;;;;;;5058188;28;20465;-80
2021/03/08 03:35:06;;;;;;;19.07;14.47;;;-3.60;78.80;;;;;;5059782;28;20519;-83
2021/03/08 03:37:33;;;;;;;21.00;14.50;;;-3.70;78.70;;;;;;5069790;28;20957;-79
2021/03/08 03:40:01;;;;;;;19.83;13.77;;;-3.70;78.60;;;;;;5067972;28;20512;-82
2021/03/08 03:42:27;;;;;;;17.63;14.40;;;-3.80;78.80;;;;;;5070067;28;20966;-83
2021/03/08 03:44:55;;;;;;;20.23;14.50;;;-3.80;80.10;;;;;;5062867;28;21043;-83
2021/03/08 03:47:23;;;;;;;17.07;13.03;;;-3.90;80.20;;;;;;5068217;28;20532;-84
2021/03/08 03:49:49;;;;;;;18.40;14.77;;;-3.90;81.30;;;;;;5081360;28;20455;-81
2021/03/08 03:52:16;;;;;;;21.00;14.40;;;-3.90;82.10;;;;;;5081228;28;20456;-86
2021/03/08 03:54:43;;;;;;;20.47;14.73;;;-4.00;81.70;;;;;;5068385;28;20492;-84
2021/03/08 03:57:12;;;;;;;17.30;13.63;;;-4.00;82.90;;;;;;5075069;28;20443;-80
2021/03/08 03:59:44;;;;;;;20.63;14.80;;;-4.00;82.70;;;;;;5067247;28;20550;-80
2021/03/08 04:02:15;;;;;;;24.43;14.70;;;-4.00;83.20;;;;;;5075168;28;20466;-82
2021/03/08 04:04:49;;;;;;;21.20;15.37;;;-3.90;83.40;;;;;;5071430;28;20470;-80
2021/03/08 04:07:17;;;;;;;24.07;15.30;;;-4.00;83.00;;;;;;5078401;28;20451;-80
2021/03/08 04:09:47;;;;;;;22.40;16.73;;;-4.00;83.20;;;;;;5073226;28;20456;-79
2021/03/08 04:12:16;;;;;;;26.03;15.37;;;-4.00;84.50;;;;;;5076015;28;20450;-81
2021/03/08 04:14:46;;;;;;;20.23;14.23;;;-4.00;83.70;;;;;;5074712;28;20451;-87
2021/03/08 04:17:14;;;;;;;26.57;16.23;;;-4.00;83.60;;;;;;5076745;28;20506;-80
2021/03/08 04:19:42;;;;;;;23.13;15.50;;;-4.00;84.50;;;;;;5077857;28;20456;-81
2021/03/08 04:22:10;;;;;;;22.37;16.33;;;-4.10;84.30;;;;;;5074439;28;20458;-79
2021/03/08 04:24:40;;;;;;;22.43;16.23;;;-4.10;86.40;;;;;;5076580;28;20459;-79
2021/03/08 04:27:12;;;;;;;27.97;17.00;;;-3.90;86.50;;;;;;5067546;28;20857;-78
2021/03/08 04:29:40;;;;;;;23.60;15.63;;;-3.90;86.30;;;;;;5067160;28;21011;-79
2021/03/08 04:32:08;;;;;;;25.70;17.27;;;-3.90;85.80;;;;;;5078893;28;20502;-81
2021/03/08 04:34:36;;;;;;;23.40;16.43;;;-4.10;85.40;;;;;;5082287;28;20450;-82
2021/03/08 04:37:04;;;;;;;23.10;17.00;;;-4.10;86.40;;;;;;5078773;28;20626;-79
2021/03/08 04:39:37;;;;;;;23.07;16.37;;;-4.10;87.80;;;;;;5074139;28;20479;-81
2021/03/08 04:42:08;;;;;;;27.00;18.17;;;-4.10;88.60;;;;;;5072117;28;20549;-79
2021/03/08 04:44:36;;;;;;;28.47;17.77;;;-4.20;89.10;;;;;;5075039;28;20529;-81
2021/03/08 04:47:06;;;;;;;27.50;18.73;;;-4.30;90.00;;;;;;5060448;28;20456;-79
2021/03/08 04:49:34;;;;;;;24.87;17.87;;;-4.20;91.40;;;;;;5067704;28;20479;-80
2021/03/08 04:52:06;;;;;;;26.67;18.97;;;-4.30;90.60;;;;;;5071569;28;20573;-81
2021/03/08 04:54:35;;;;;;;26.70;17.30;;;-4.30;91.40;;;;;;5077026;28;20452;-80
2021/03/08 04:57:03;;;;;;;23.63;17.30;;;-4.30;91.20;;;;;;5067431;28;20551;-78
2021/03/08 04:59:30;;;;;;;33.70;18.60;;;-4.20;91.50;;;;;;5072537;28;20454;-82
2021/03/08 05:01:58;;;;;;;26.67;16.93;;;-4.30;91.10;;;;;;5064572;28;20468;-80
2021/03/08 05:04:26;;;;;;;26.70;18.00;;;-4.30;92.20;;;;;;5069236;28;20470;-81
2021/03/08 05:06:54;;;;;;;22.10;17.50;;;-4.40;92.50;;;;;;5069768;28;20464;-82
2021/03/08 05:09:22;;;;;;;29.50;18.83;;;-4.40;92.30;;;;;;5045608;28;20450;-80
2021/03/08 05:11:51;;;;;;;26.90;17.60;;;-4.40;92.90;;;;;;5072445;28;20501;-80
2021/03/08 05:14:20;;;;;;;25.03;18.27;;;-4.30;93.50;;;;;;5076125;28;20464;-80
2021/03/08 05:16:51;;;;;;;30.30;21.30;;;-4.20;93.60;;;;;;5068934;28;20488;-79
2021/03/08 05:19:20;;;;;;;33.60;19.60;;;-4.10;93.50;;;;;;5070926;28;20823;-81
2021/03/08 05:21:49;;;;;;;27.00;18.97;;;-4.10;93.40;;;;;;5072774;28;20443;-79
2021/03/08 05:24:16;;;;;;;27.60;18.67;;;-4.10;93.20;;;;;;5076032;28;20480;-80
2021/03/08 05:26:43;;;;;;;30.47;19.30;;;-4.20;92.00;;;;;;5076638;28;20525;-83
2021/03/08 05:29:09;;;;;;;34.80;21.47;;;-4.10;92.10;;;;;;5072989;28;20871;-80
2021/03/08 05:31:40;;;;;;;40.40;26.17;;;-4.00;91.20;;;;;;5078781;28;20487;-79
2021/03/08 05:34:08;;;;;;;38.30;25.53;;;-4.00;91.10;;;;;;5076032;28;20452;-79
2021/03/08 05:36:39;;;;;;;39.63;24.00;;;-4.00;91.30;;;;;;5072276;28;20472;-81
2021/03/08 05:39:07;;;;;;;46.97;28.67;;;-4.10;91.40;;;;;;5071342;28;20470;-79
2021/03/08 05:41:38;;;;;;;45.37;28.10;;;-4.10;91.40;;;;;;5072900;28;20539;-79
2021/03/08 05:44:07;;;;;;;34.80;24.83;;;-4.00;93.10;;;;;;5073674;28;20451;-78
2021/03/08 05:46:55;;;;;;;40.10;24.83;;;-4.00;92.30;;;;;;5074215;28;21024;-78
2021/03/08 05:49:49;;;;;;;35.70;25.10;;;-4.00;92.20;;;;;;5062552;28;20549;-79
2021/03/08 05:52:38;;;;;;;35.53;23.50;;;-4.00;92.30;;;;;;5072419;28;20575;-79
2021/03/08 05:55:35;;;;;;;41.23;23.80;;;-4.10;91.50;;;;;;5062147;28;20458;-79
2021/03/08 05:58:18;;;;;;;34.37;22.97;;;-4.10;92.60;;;;;;5069197;28;20754;-79
2021/03/08 06:01:09;;;;;;;33.57;20.07;;;-4.10;92.30;;;;;;5066933;28;20485;-79
2021/03/08 06:04:07;;;;;;;31.87;20.80;;;-4.00;92.60;;;;;;5029426;28;20457;-81
2021/03/08 06:07:02;;;;;;;33.47;21.70;;;-3.90;91.60;;;;;;5074821;28;20516;-79
2021/03/08 06:09:29;;;;;;;31.17;19.90;;;-3.80;90.10;;;;;;5074904;28;20982;-79
2021/03/08 06:12:05;;;;;;;30.40;20.53;;;-3.70;87.40;;;;;;5076516;28;20462;-79
2021/03/08 06:14:40;;;;;;;32.00;21.23;;;-3.80;83.90;;;;;;5073891;28;20463;-79
2021/03/08 06:17:08;;;;;;;31.13;21.80;;;-3.60;86.20;;;;;;5070333;28;20584;-81
2021/03/08 06:19:39;;;;;;;30.53;21.10;;;-3.70;84.00;;;;;;5072136;28;20541;-78
2021/03/08 06:22:08;;;;;;;37.70;20.87;;;-3.70;84.50;;;;;;5072387;28;20459;-79
2021/03/08 06:24:38;;;;;;;31.13;22.73;;;-3.60;84.80;;;;;;5063469;28;20468;-79
2021/03/08 06:27:07;;;;;;;34.40;21.83;;;-3.60;84.30;;;;;;5052709;28;21350;-79
2021/03/08 06:29:35;;;;;;;31.13;20.77;;;-3.50;83.60;;;;;;5060170;28;20454;-82
2021/03/08 06:32:01;;;;;;;30.20;20.07;;;-3.40;83.30;;;;;;5064382;28;20459;-81
2021/03/08 06:34:27;;;;;;;34.80;21.90;;;-3.30;82.20;;;;;;5073221;28;20468;-80
2021/03/08 06:36:54;;;;;;;41.23;22.00;;;-3.00;81.50;;;;;;5066903;28;20472;-80
2021/03/08 06:39:21;;;;;;;48.27;22.13;;;-2.80;80.00;;;;;;5086796;28;20443;-83
2021/03/08 06:41:48;;;;;;;28.90;21.23;;;-2.60;78.50;;;;;;5082781;28;20834;-80
2021/03/08 06:44:15;;;;;;;28.80;20.80;;;-2.30;77.10;;;;;;5083967;28;20532;-78
2021/03/08 06:46:44;;;;;;;29.93;20.30;;;-2.10;76.20;;;;;;5069950;28;20447;-80
2021/03/08 06:49:10;;;;;;;29.00;19.90;;;-1.90;74.50;;;;;;5068275;28;20456;-79
2021/03/08 06:51:56;;;;;;;47.03;23.07;;;-1.70;73.70;;;;;;5065879;28;20508;-79
2021/03/08 06:54:23;;;;;;;56.27;32.03;;;-1.60;74.00;;;;;;5083226;28;20444;-80
2021/03/08 06:56:50;;;;;;;61.10;34.77;;;-1.40;73.30;;;;;;5064838;28;20623;-84
2021/03/08 06:59:17;;;;;;;55.67;36.45;;;-1.10;72.80;;;;;;5074211;28;20561;-78
2021/03/08 07:01:45;;;;;;;33.43;24.07;;;-1.00;72.20;;;;;;5076241;28;20213;-80
2021/03/08 07:04:14;;;;;;;29.40;21.97;;;-1.10;72.30;;;;;;5075622;28;20456;-81
2021/03/08 07:06:41;;;;;;;28.80;18.93;;;-0.90;72.50;;;;;;5057401;28;20446;-80
2021/03/08 07:09:09;;;;;;;27.93;18.30;;;-0.80;72.20;;;;;;5055046;28;20814;-82
2021/03/08 07:11:35;;;;;;;23.53;17.50;;;-0.70;72.00;;;;;;5062035;28;20496;-80
2021/03/08 07:14:02;;;;;;;21.30;16.97;;;-0.60;71.50;;;;;;5061738;28;20488;-79
2021/03/08 07:16:36;;;;;;;25.20;16.40;;;-0.40;70.80;;;;;;5068117;28;20481;-81
2021/03/08 07:19:03;;;;;;;29.33;19.57;;;-0.40;70.10;;;;;;5069991;28;20510;-75
2021/03/08 07:21:29;;;;;;;30.60;20.80;;;-0.40;70.50;;;;;;5056208;28;20543;-79
2021/03/08 07:24:09;;;;;;;25.60;19.67;;;-0.20;69.90;;;;;;5046307;28;20460;-79
2021/03/08 07:26:36;;;;;;;29.23;21.20;;;-0.10;69.70;;;;;;5065062;28;20470;-78
2021/03/08 07:29:10;;;;;;;32.57;22.20;;;0.40;70.90;;;;;;5058028;28;20452;-78
2021/03/08 07:31:38;;;;;;;24.97;19.90;;;0.50;68.50;;;;;;5070706;28;20464;-81
2021/03/08 07:34:08;;;;;;;50.10;35.23;;;0.50;68.50;;;;;;5062527;28;20472;-78
2021/03/08 07:36:35;;;;;;;27.53;20.17;;;0.70;68.70;;;;;;5068501;28;20828;-79
2021/03/08 07:39:10;;;;;;;42.90;20.00;;;0.70;68.10;;;;;;5061086;28;20486;-78
2021/03/08 07:41:51;;;;;;;30.20;19.17;;;0.90;67.50;;;;;;5066392;28;21504;-79
2021/03/08 07:44:23;;;;;;;22.80;16.30;;;0.60;67.30;;;;;;5060959;28;20464;-78
2021/03/08 07:46:50;;;;;;;23.57;16.33;;;0.60;68.80;;;;;;5068267;28;20523;-79
2021/03/08 07:49:30;;;;;;;16.17;14.37;;;0.60;68.00;;;;;;5057478;28;20445;-77
2021/03/08 07:52:01;;;;;;;21.60;15.93;;;0.60;67.00;;;;;;5067636;28;20492;-79
2021/03/08 07:54:28;;;;;;;22.43;15.77;;;0.60;67.60;;;;;;5069196;28;20466;-79
2021/03/08 07:56:57;;;;;;;17.80;15.53;;;0.60;67.10;;;;;;5060625;28;20616;-79
2021/03/08 07:59:24;;;;;;;24.70;17.10;;;0.50;66.80;;;;;;5060065;28;20445;-81
2021/03/08 08:01:51;;;;;;;20.83;16.53;;;0.40;67.30;;;;;;5073485;28;20453;-82
2021/03/08 08:04:17;;;;;;;31.63;17.27;;;0.30;67.10;;;;;;5062712;28;20467;-81
2021/03/08 08:06:46;;;;;;;26.27;16.17;;;0.40;67.30;;;;;;5078168;28;20498;-90
2021/03/08 08:11:55;;;;;;;26.00;17.27;;;0.70;66.50;;;;;;5086210;28;20492;-91
2021/03/08 08:14:24;;;;;;;30.20;19.13;;;0.60;66.90;;;;;;5082526;28;20469;-90
2021/03/08 08:16:57;;;;;;;24.90;17.50;;;0.70;66.60;;;;;;5059300;28;20488;-88
2021/03/08 08:19:29;;;;;;;35.83;18.70;;;1.20;65.90;;;;;;5065713;28;20517;-88
2021/03/08 08:21:57;;;;;;;22.10;15.30;;;1.40;65.20;;;;;;5074499;28;20451;-88
2021/03/08 08:27:14;;;;;;;17.40;14.77;;;1.50;63.30;;;;;;5074638;28;20456;-90
2021/03/08 08:29:54;;;;;;;18.30;15.07;;;1.70;63.30;;;;;;5068740;28;20946;-90
2021/03/08 08:36:14;;;;;;;19.43;14.80;;;1.80;62.60;;;;;;5065528;28;20472;-86
2021/03/08 08:38:42;;;;;;;18.80;16.90;;;2.10;62.60;;;;;;5063782;28;20454;-86
2021/03/08 08:41:24;;;;;;;19.17;13.50;;;2.50;62.00;;;;;;5071094;28;20194;-81
2021/03/08 08:44:39;;;;;;;25.40;16.48;;;2.80;60.70;;;;;;5074075;28;20492;-79
2021/03/08 08:47:26;;;;;;;17.13;14.23;;;2.90;60.30;;;;;;5073201;28;20304;-80
2021/03/08 08:49:55;;;;;;;22.37;16.00;;;3.10;58.80;;;;;;5075200;28;20990;-78
2021/03/08 08:52:44;;;;;;;21.40;14.63;;;1.80;58.60;;;;;;5066833;28;20865;-80
2021/03/08 08:55:12;;;;;;;17.30;13.53;;;2.40;59.30;;;;;;5067450;28;20449;-81
2021/03/08 08:57:38;;;;;;;16.80;13.10;;;2.50;59.10;;;;;;5071262;28;20487;-80
2021/03/08 09:00:21;;;;;;;20.93;14.10;;;2.60;58.90;;;;;;5069234;28;20819;-80
2021/03/08 09:02:48;;;;;;;23.53;12.80;;;2.80;58.70;;;;;;5064852;28;20457;-80
2021/03/08 09:05:43;;;;;;;19.97;14.97;;;3.30;58.00;;;;;;5054729;28;20453;-80
2021/03/08 09:08:32;;;;;;;16.93;13.17;;;3.90;57.70;;;;;;5070061;28;21248;-80
2021/03/08 09:11:00;;;;;;;16.90;13.33;;;3.50;56.80;;;;;;5057400;28;20882;-79
2021/03/08 09:13:28;;;;;;;15.00;13.50;;;3.20;56.70;;;;;;5068007;28;20453;-80
2021/03/08 09:15:56;;;;;;;16.53;14.23;;;3.20;56.60;;;;;;5064497;28;20479;-80
2021/03/08 09:18:36;;;;;;;17.33;14.17;;;3.90;56.90;;;;;;5056057;28;20471;-79
2021/03/08 09:21:20;;;;;;;17.17;14.05;;;4.40;56.20;;;;;;5062461;28;20952;-82
2021/03/08 09:23:47;;;;;;;17.50;15.45;;;4.20;55.20;;;;;;5065909;28;20450;-81
2021/03/08 09:26:14;;;;;;;19.73;13.23;;;4.30;55.30;;;;;;5056648;28;20283;-81
2021/03/08 09:28:50;;;;;;;13.60;12.20;;;4.40;54.30;;;;;;5059914;28;20460;-81
2021/03/08 09:31:22;;;;;;;16.17;11.30;;;4.50;53.20;;;;;;5066256;28;20509;-85
2021/03/08 09:33:51;;;;;;;106.37;20.13;;;3.80;53.40;;;;;;5070044;28;20523;-83
2021/03/08 09:36:21;;;;;;;23.20;15.52;;;4.30;54.10;;;;;;5068386;28;20450;-84
2021/03/08 09:38:48;;;;;;;13.37;11.50;;;4.00;53.90;;;;;;5070761;28;20237;-85
2021/03/08 09:41:15;;;;;;;16.40;13.67;;;4.20;53.90;;;;;;5078429;28;20459;-84
2021/03/08 09:43:42;;;;;;;29.83;13.10;;;3.90;54.20;;;;;;5071394;28;20449;-83
2021/03/08 09:46:11;;;;;;;20.10;12.67;;;3.80;54.20;;;;;;5074001;28;20449;-84
2021/03/08 09:48:43;;;;;;;13.47;11.27;;;4.20;53.90;;;;;;5076532;28;20563;-84
2021/03/08 09:51:13;;;;;;;13.30;11.60;;;4.30;53.50;;;;;;5073950;28;20451;-86
2021/03/08 09:53:42;;;;;;;20.50;12.57;;;4.20;53.70;;;;;;5071267;28;20470;-84
2021/03/08 09:56:11;;;;;;;17.17;12.60;;;4.10;53.70;;;;;;5085512;28;20569;-83
2021/03/08 09:58:41;;;;;;;23.90;12.90;;;4.60;53.80;;;;;;5074097;28;20519;-83
2021/03/08 10:01:22;;;;;;;14.47;11.63;;;4.80;53.20;;;;;;5088423;28;20456;-84
2021/03/08 10:03:50;;;;;;;24.40;14.37;;;4.70;52.70;;;;;;5078913;28;20431;-83
2021/03/08 10:06:24;;;;;;;15.57;12.07;;;4.20;53.20;;;;;;5092702;28;20439;-85
2021/03/08 10:08:52;;;;;;;14.97;11.83;;;4.30;53.60;;;;;;5089268;28;20426;-81
2021/03/08 10:11:23;;;;;;;15.15;13.55;;;4.50;53.40;;;;;;5079277;28;20477;-89
2021/03/08 10:13:50;;;;;;;15.07;12.60;;;4.80;52.80;;;;;;5072948;28;20215;-87
2021/03/08 10:16:24;;;;;;;16.90;12.47;;;4.70;52.30;;;;;;5075908;28;20543;-88
2021/03/08 10:18:53;;;;;;;13.33;11.93;;;5.30;51.80;;;;;;5082041;28;20467;-88
2021/03/08 10:21:22;;;;;;;18.97;12.47;;;5.70;51.80;;;;;;5085610;28;20458;-87
2021/03/08 10:23:51;;;;;;;12.60;10.83;;;5.40;51.40;;;;;;5064187;28;20483;-86
2021/03/08 10:26:20;;;;;;;16.60;12.57;;;5.20;51.80;;;;;;5087691;28;20435;-85
2021/03/08 10:28:53;;;;;;;15.17;11.90;;;5.40;51.40;;;;;;5072489;28;20455;-86
2021/03/08 10:31:24;;;;;;;14.17;11.70;;;5.50;51.50;;;;;;5088471;28;20472;-87
2021/03/08 10:37:07;;;;;;;17.20;11.80;;;5.10;51.40;;;;;;5081864;28;20492;-89
2021/03/08 10:39:49;;;;;;;16.83;11.17;;;5.00;52.20;;;;;;5085969;28;20547;-85
2021/03/08 10:42:22;;;;;;;15.15;12.30;;;5.30;51.70;;;;;;5088476;28;20474;-86
2021/03/08 10:44:50;;;;;;;14.40;12.43;;;4.90;51.80;;;;;;5051372;28;20462;-88
2021/03/08 10:47:20;;;;;;;16.87;11.83;;;5.00;51.80;;;;;;5057912;28;20200;-84
2021/03/08 10:49:57;;;;;;;13.77;11.73;;;5.50;51.60;;;;;;5077712;28;20450;-85
2021/03/08 11:04:10;;;;;;;17.07;11.70;;;6.70;50.80;;;;;;5019379;28;20543;-89
2021/03/08 11:06:53;;;;;;;15.80;14.30;;;5.90;50.80;;;;;;5015565;28;20881;-90
2021/03/08 11:09:45;;;;;;;13.60;12.20;;;6.10;50.80;;;;;;5069657;28;20542;-91
2021/03/08 11:12:59;;;;;;;17.77;11.60;;;6.40;50.30;;;;;;5076879;28;20471;-90
2021/03/08 11:18:28;;;;;;;13.13;10.90;;;6.40;50.10;;;;;;5075912;28;20478;-90
2021/03/08 11:20:56;;;;;;;17.80;10.80;;;6.40;50.10;;;;;;5078476;28;20475;-85
2021/03/08 11:23:32;;;;;;;14.67;11.27;;;6.20;50.00;;;;;;5065988;28;20446;-89
2021/03/08 11:26:26;;;;;;;12.40;10.03;;;6.50;50.70;;;;;;5087666;28;20496;-87
2021/03/08 11:28:53;;;;;;;13.03;11.00;;;6.80;49.90;;;;;;5063617;28;20521;-86
2021/03/08 11:31:25;;;;;;;14.87;10.30;;;6.80;49.80;;;;;;5079565;28;20452;-86
2021/03/08 11:33:55;;;;;;;13.10;10.43;;;6.50;49.80;;;;;;5055842;28;20536;-87
2021/03/08 11:36:34;;;;;;;12.53;9.87;;;6.20;50.10;;;;;;5072562;28;20471;-86
2021/03/08 11:39:04;;;;;;;10.70;9.17;;;6.70;49.90;;;;;;5054101;28;20580;-86
2021/03/08 11:41:46;;;;;;;13.67;10.30;;;6.60;50.00;;;;;;5072008;28;20458;-86
2021/03/08 11:44:15;;;;;;;14.20;10.03;;;6.60;49.70;;;;;;5072144;28;20487;-85
2021/03/08 11:46:53;;;;;;;11.60;10.40;;;6.70;49.70;;;;;;5062855;28;20893;-86
2021/03/08 11:49:21;;;;;;;13.47;9.90;;;6.80;49.50;;;;;;5075591;28;20468;-85
2021/03/08 11:51:47;;;;;;;14.37;10.13;;;6.70;49.30;;;;;;5078749;28;20533;-87
2021/03/08 11:54:14;;;;;;;10.90;9.90;;;6.80;49.50;;;;;;5075335;28;20527;-87
2021/03/08 11:56:43;;;;;;;11.43;9.40;;;7.30;48.80;;;;;;5074896;28;20491;-86
2021/03/08 11:59:11;;;;;;;12.07;8.40;;;7.40;48.70;;;;;;5050589;28;20941;-85
2021/03/08 12:01:38;;;;;;;18.05;11.50;;;7.50;48.60;;;;;;5064579;28;20442;-82
2021/03/08 12:04:06;;;;;;;11.87;10.70;;;7.00;48.20;;;;;;5072232;28;20253;-81
2021/03/08 12:06:33;;;;;;;18.47;11.33;;;6.70;49.00;;;;;;5065650;28;20463;-83
2021/03/08 12:08:59;;;;;;;14.33;9.97;;;7.60;48.40;;;;;;5075187;28;20480;-83
2021/03/08 12:11:26;;;;;;;14.50;11.20;;;7.70;48.10;;;;;;5076706;28;20474;-84
2021/03/08 12:13:53;;;;;;;15.83;9.90;;;7.50;47.90;;;;;;5081270;28;20955;-82
2021/03/08 12:16:19;;;;;;;11.00;9.73;;;7.00;47.70;;;;;;5059304;28;20480;-84
2021/03/08 12:18:46;;;;;;;10.60;9.07;;;7.70;48.00;;;;;;5061806;28;20466;-82
2021/03/08 12:21:14;;;;;;;14.93;10.53;;;7.90;47.70;;;;;;5070106;28;20490;-83
2021/03/08 12:23:40;;;;;;;9.87;8.87;;;7.80;47.50;;;;;;5076867;28;20472;-84
2021/03/08 12:26:07;;;;;;;14.90;10.47;;;7.60;47.70;;;;;;5058995;28;20440;-82
2021/03/08 12:28:33;;;;;;;11.13;9.57;;;7.90;47.80;;;;;;5062154;28;20477;-83
2021/03/08 12:31:00;;;;;;;13.27;9.83;;;8.50;47.50;;;;;;5056500;28;20902;-81
2021/03/08 12:33:27;;;;;;;11.23;9.40;;;7.80;47.30;;;;;;5075720;28;20487;-82
2021/03/08 12:35:53;;;;;;;12.20;10.10;;;7.90;47.50;;;;;;5066948;28;20456;-82
2021/03/08 12:38:21;;;;;;;15.60;10.50;;;7.90;47.40;;;;;;5056260;28;20433;-81
2021/03/08 12:40:48;;;;;;;13.03;9.37;;;7.40;47.80;;;;;;5065689;28;20483;-84
2021/03/08 12:43:15;;;;;;;11.00;9.03;;;7.40;47.70;;;;;;5074868;28;20589;-81
2021/03/08 12:45:42;;;;;;;10.20;8.53;;;7.20;48.20;;;;;;5074141;28;20494;-80
2021/03/08 12:48:09;;;;;;;12.50;9.40;;;7.60;47.90;;;;;;5066438;28;20878;-81
2021/03/08 12:50:36;;;;;;;10.73;9.03;;;7.60;47.60;;;;;;5071045;28;20464;-82
2021/03/08 12:53:03;;;;;;;11.37;9.00;;;7.20;47.60;;;;;;5076492;28;20455;-82
2021/03/08 12:55:31;;;;;;;13.07;9.17;;;7.00;48.00;;;;;;5074673;28;21322;-83
2021/03/08 12:57:58;;;;;;;8.87;7.50;;;7.40;47.70;;;;;;5060481;28;20465;-81
2021/03/08 13:00:26;;;;;;;9.73;8.00;;;7.30;47.70;;;;;;5058898;28;20462;-82
2021/03/08 13:02:54;;;;;;;8.90;8.00;;;7.40;47.50;;;;;;5073314;28;20828;-84
2021/03/08 13:05:21;;;;;;;9.23;7.47;;;7.40;47.30;;;;;;5043435;28;20800;-84
2021/03/08 13:07:48;;;;;;;10.50;8.00;;;7.50;47.40;;;;;;5082259;28;20444;-84
2021/03/08 13:10:16;;;;;;;9.43;7.30;;;7.30;47.60;;;;;;5090166;28;20530;-85
2021/03/08 13:12:43;;;;;;;10.27;7.10;;;7.10;47.80;;;;;;5072652;28;20509;-85
2021/03/08 13:15:11;;;;;;;8.70;6.83;;;7.20;48.20;;;;;;5066726;28;20445;-84
2021/03/08 13:17:39;;;;;;;18.90;7.40;;;7.00;47.50;;;;;;5067130;28;20914;-83